Time;durP1;ratioP1;P1;durP2;ratioP2;P2;SDS_P1;SDS_P2;PMS_P1;PMS_P2;Temp;Humidity;BMP_temperature;BMP_pressure;BME280_temperature;BME280_humidity;BME280_pressure;Samples;Min_cycle;Max_cycle;Signal;HPM_P1;HPM_P2
2022/01/01 00:01:47;;;;;;;11.40;6.97;;;;;;;;;;5009843;28;20511;-71
2022/01/01 00:04:13;;;;;;;13.20;7.45;;;;;;;;;;5009295;28;20061;-70
2022/01/01 00:06:39;;;;;;;11.07;7.22;;;;;;;;;;4993727;28;20018;-70
2022/01/01 00:09:05;;;;;;;11.35;7.32;;;;;;;;;;5009828;28;20026;-70
2022/01/01 00:11:31;;;;;;;11.48;7.28;;;;;;;;;;5009375;28;20026;-70
2022/01/01 00:13:57;;;;;;;11.90;7.50;;;;;;;;;;5010205;28;20030;-72
2022/01/01 00:16:23;;;;;;;10.63;6.70;;;;;;;;;;5010826;28;20069;-71
2022/01/01 00:18:50;;;;;;;11.55;6.53;;;;;;;;;;5011272;28;20525;-71
2022/01/01 00:21:16;;;;;;;11.65;7.25;;;;;;;;;;5002277;28;20027;-71
2022/01/01 00:23:42;;;;;;;13.32;7.75;;;;;;;;;;5002467;28;20030;-72
2022/01/01 00:26:08;;;;;;;13.02;8.75;;;;;;;;;;5010892;28;20080;-72
2022/01/01 00:28:34;;;;;;;9.90;6.30;;;;;;;;;;5010840;28;20495;-72
2022/01/01 00:31:00;;;;;;;10.82;7.10;;;;;;;;;;5010822;28;20101;-71
2022/01/01 00:33:29;;;;;;;12.32;7.85;;;;;;;;;;5010019;28;20029;-72
2022/01/01 00:35:55;;;;;;;12.30;7.57;;;;;;;;;;5010887;28;20384;-71
2022/01/01 00:38:21;;;;;;;13.45;8.20;;;;;;;;;;5011194;28;20026;-71
2022/01/01 00:40:47;;;;;;;12.45;8.75;;;;;;;;;;4993196;28;20038;-71
2022/01/01 00:43:13;;;;;;;9.95;6.35;;;;;;;;;;5010343;28;20160;-71
2022/01/01 00:45:39;;;;;;;10.38;6.75;;;;;;;;;;5010624;28;20033;-72
2022/01/01 00:48:05;;;;;;;9.18;6.80;;;;;;;;;;5009812;28;20029;-72
2022/01/01 00:50:31;;;;;;;10.80;7.15;;;;;;;;;;5010914;28;20046;-72
2022/01/01 00:52:59;;;;;;;9.88;6.78;;;;;;;;;;5010058;28;20065;-72
2022/01/01 00:55:25;;;;;;;9.23;7.05;;;;;;;;;;5005261;28;20026;-71
2022/01/01 00:57:51;;;;;;;11.43;7.60;;;;;;;;;;5004301;28;20030;-71
2022/01/01 01:00:17;;;;;;;10.20;6.32;;;;;;;;;;4992227;28;20056;-72
2022/01/01 01:02:42;;;;;;;13.52;7.13;;;;;;;;;;4998336;28;20033;-71
2022/01/01 01:05:08;;;;;;;14.10;7.65;;;;;;;;;;5010142;28;20029;-73
2022/01/01 01:07:35;;;;;;;12.68;7.78;;;;;;;;;;5010843;28;20415;-71
2022/01/01 01:10:01;;;;;;;11.77;7.03;;;;;;;;;;5010664;28;20044;-71
2022/01/01 01:12:37;;;;;;;11.35;6.60;;;;;;;;;;4992789;28;20065;-72
2022/01/01 01:15:04;;;;;;;8.13;6.05;;;;;;;;;;4991846;28;20032;-72
2022/01/01 01:17:30;;;;;;;10.82;6.60;;;;;;;;;;5010473;28;20413;-73
2022/01/01 01:19:56;;;;;;;9.45;6.15;;;;;;;;;;5005344;28;20057;-73
2022/01/01 01:22:22;;;;;;;7.00;5.15;;;;;;;;;;4994383;28;20046;-72
2022/01/01 01:24:53;;;;;;;10.73;7.10;;;;;;;;;;5013456;28;20029;-72
2022/01/01 01:27:19;;;;;;;;;;;;;;;;;;5015488;28;20100;-72
2022/01/01 01:29:45;;;;;;;9.32;6.43;;;;;;;;;;5004225;28;20000;-72
2022/01/01 01:32:11;;;;;;;9.90;6.65;;;;;;;;;;5014387;28;20018;-72
2022/01/01 01:34:38;;;;;;;9.18;5.82;;;;;;;;;;5014078;28;20026;-72
2022/01/01 01:37:04;;;;;;;7.38;5.22;;;;;;;;;;4997148;28;20032;-71
2022/01/01 01:39:30;;;;;;;8.32;4.53;;;;;;;;;;5014717;28;20037;-72
2022/01/01 01:41:56;;;;;;;6.32;4.35;;;;;;;;;;5014765;28;20041;-72
2022/01/01 01:44:23;;;;;;;11.05;4.22;;;;;;;;;;5014685;28;20053;-71
2022/01/01 01:46:49;;;;;;;10.13;6.15;;;;;;;;;;5015122;28;20105;-71
2022/01/01 01:49:15;;;;;;;10.98;5.38;;;;;;;;;;5009668;28;20048;-72
2022/01/01 01:51:41;;;;;;;8.95;5.43;;;;;;;;;;5014223;28;20399;-71
2022/01/01 01:54:09;;;;;;;10.00;5.90;;;;;;;;;;5013570;28;20030;-72
2022/01/01 01:56:35;;;;;;;11.27;5.55;;;;;;;;;;5013920;28;20069;-71
2022/01/01 01:59:01;;;;;;;7.90;5.25;;;;;;;;;;5014088;28;20480;-71
2022/01/01 02:01:27;;;;;;;7.13;5.60;;;;;;;;;;5013597;28;20048;-72
2022/01/01 02:03:56;;;;;;;8.70;5.65;;;;;;;;;;5012808;28;20029;-72
2022/01/01 02:06:23;;;;;;;9.20;5.82;;;;;;;;;;5013324;28;20030;-72
2022/01/01 02:08:50;;;;;;;8.88;5.65;;;;;;;;;;5013769;28;20064;-72
2022/01/01 02:11:17;;;;;;;10.15;5.55;;;;;;;;;;5013543;28;20022;-72
2022/01/01 02:18:49;;;;;;;8.55;5.35;;;;;;;;;;5013190;28;20034;-72
2022/01/01 02:21:15;;;;;;;6.40;5.00;;;;;;;;;;5004923;28;20057;-73
2022/01/01 02:23:43;;;;;;;8.20;5.65;;;;;;;;;;4994600;28;20026;-72
2022/01/01 02:26:12;;;;;;;9.85;5.50;;;;;;;;;;5013118;28;20022;-73
2022/01/01 02:28:42;;;;;;;10.00;5.07;;;;;;;;;;5013010;28;20017;-73
2022/01/01 02:31:08;;;;;;;7.78;5.53;;;;;;;;;;5009048;28;20026;-73
2022/01/01 02:33:34;;;;;;;8.70;5.32;;;;;;;;;;5012056;28;20033;-73
2022/01/01 02:36:00;;;;;;;9.27;5.25;;;;;;;;;;5011951;28;20026;-73
2022/01/01 02:38:26;;;;;;;9.00;5.25;;;;;;;;;;5012885;28;20531;-72
2022/01/01 02:40:52;;;;;;;9.60;5.85;;;;;;;;;;5012793;28;20080;-72
2022/01/01 02:43:18;;;;;;;9.30;5.18;;;;;;;;;;5012090;28;20109;-73
2022/01/01 02:45:44;;;;;;;5.55;4.63;;;;;;;;;;5012290;28;20093;-73
2022/01/01 02:48:12;;;;;;;11.32;5.70;;;;;;;;;;4995135;28;20632;-72
2022/01/01 02:50:38;;;;;;;8.10;5.15;;;;;;;;;;4994908;28;20022;-72
2022/01/01 02:53:11;;;;;;;9.40;5.78;;;;;;;;;;5012157;28;20030;-73
2022/01/01 02:55:37;;;;;;;6.93;4.88;;;;;;;;;;5012463;28;20488;-73
2022/01/01 02:58:03;;;;;;;6.45;5.00;;;;;;;;;;5012754;28;20086;-73
2022/01/01 03:00:29;;;;;;;5.65;4.60;;;;;;;;;;5012128;28;20399;-73
2022/01/01 03:02:55;;;;;;;8.10;5.30;;;;;;;;;;5011951;28;20388;-72
2022/01/01 03:05:21;;;;;;;7.90;5.68;;;;;;;;;;5012250;28;20018;-72
2022/01/01 03:07:47;;;;;;;5.35;4.30;;;;;;;;;;5008227;28;20045;-73
2022/01/01 03:10:13;;;;;;;8.35;5.10;;;;;;;;;;5012256;28;20108;-73
2022/01/01 03:12:39;;;;;;;8.80;5.25;;;;;;;;;;5011960;28;20067;-72
2022/01/01 03:15:05;;;;;;;6.75;4.88;;;;;;;;;;5011990;28;20479;-73
2022/01/01 03:17:31;;;;;;;6.90;4.68;;;;;;;;;;5012158;28;20034;-73
2022/01/01 03:19:57;;;;;;;7.70;4.80;;;;;;;;;;5012016;28;20061;-73
2022/01/01 03:22:23;;;;;;;6.50;4.30;;;;;;;;;;4995786;28;20037;-73
2022/01/01 03:24:49;;;;;;;8.27;5.13;;;;;;;;;;4993642;28;20018;-72
2022/01/01 03:27:15;;;;;;;7.70;4.90;;;;;;;;;;5012147;28;20029;-72
2022/01/01 03:29:41;;;;;;;6.53;4.70;;;;;;;;;;4993912;28;20025;-73
2022/01/01 03:32:07;;;;;;;8.60;4.65;;;;;;;;;;5012285;28;20026;-73
2022/01/01 03:34:33;;;;;;;5.63;3.70;;;;;;;;;;4993440;28;20522;-72
2022/01/01 03:36:59;;;;;;;6.55;4.70;;;;;;;;;;4994219;28;20026;-72
2022/01/01 03:39:27;;;;;;;7.72;4.75;;;;;;;;;;5011934;28;20029;-73
2022/01/01 03:41:53;;;;;;;6.03;4.63;;;;;;;;;;5012095;28;20044;-72
2022/01/01 03:44:19;;;;;;;9.85;5.10;;;;;;;;;;5010614;28;20069;-71
2022/01/01 03:46:45;;;;;;;7.38;4.22;;;;;;;;;;5011224;28;20045;-71
2022/01/01 03:49:11;;;;;;;9.13;4.72;;;;;;;;;;4994290;28;20014;-71
2022/01/01 03:51:37;;;;;;;5.38;3.95;;;;;;;;;;5011832;28;20026;-72
2022/01/01 03:54:03;;;;;;;6.07;4.22;;;;;;;;;;5011585;28;20500;-73
2022/01/01 03:56:29;;;;;;;9.88;5.00;;;;;;;;;;5012511;28;20026;-73
2022/01/01 03:58:55;;;;;;;6.20;3.88;;;;;;;;;;5014103;28;20053;-72
2022/01/01 04:01:21;;;;;;;7.22;4.15;;;;;;;;;;5013299;28;20025;-72
2022/01/01 04:03:47;;;;;;;5.72;4.05;;;;;;;;;;5012064;28;20037;-72
2022/01/01 04:06:13;;;;;;;8.30;4.18;;;;;;;;;;5007433;28;20440;-72
2022/01/01 04:08:39;;;;;;;5.00;3.83;;;;;;;;;;5012157;28;20072;-72
2022/01/01 04:11:05;;;;;;;6.78;3.70;;;;;;;;;;5011225;28;20156;-72
2022/01/01 04:13:31;;;;;;;5.03;3.42;;;;;;;;;;5010475;28;20060;-72
2022/01/01 04:15:57;;;;;;;5.70;3.92;;;;;;;;;;4993482;28;20037;-72
2022/01/01 04:18:38;;;;;;;7.35;3.83;;;;;;;;;;4993485;28;20081;-72
2022/01/01 04:21:06;;;;;;;8.25;4.32;;;;;;;;;;5003259;28;20497;-72
2022/01/01 04:23:32;;;;;;;4.18;3.60;;;;;;;;;;4995307;28;20026;-72
2022/01/01 04:25:57;;;;;;;4.88;3.65;;;;;;;;;;5014272;28;20498;-72
2022/01/01 04:28:24;;;;;;;5.32;3.58;;;;;;;;;;5014678;28;20045;-72
2022/01/01 04:30:50;;;;;;;5.65;4.05;;;;;;;;;;5014329;28;20077;-72
2022/01/01 04:33:16;;;;;;;5.57;3.60;;;;;;;;;;4994613;28;20030;-72
2022/01/01 04:35:42;;;;;;;7.28;3.85;;;;;;;;;;5010873;28;20037;-73
2022/01/01 04:38:20;;;;;;;7.90;4.28;;;;;;;;;;5011175;28;20065;-72
2022/01/01 04:40:46;;;;;;;6.13;3.45;;;;;;;;;;5033961;22;20132;-72
2022/01/01 04:43:12;;;;;;;5.28;3.80;;;;;;;;;;5042383;28;20032;-73
2022/01/01 04:45:38;;;;;;;6.40;3.80;;;;;;;;;;5040861;28;20560;-73
2022/01/01 04:48:04;;;;;;;4.07;3.60;;;;;;;;;;5035730;28;20432;-73
2022/01/01 04:50:31;;;;;;;7.60;3.65;;;;;;;;;;5045735;28;20037;-73
2022/01/01 04:52:57;;;;;;;7.45;3.47;;;;;;;;;;5034937;28;20032;-74
2022/01/01 04:55:24;;;;;;;5.38;3.35;;;;;;;;;;5041115;28;20079;-73
2022/01/01 04:57:50;;;;;;;6.53;3.53;;;;;;;;;;5042852;28;20509;-72
2022/01/01 05:00:16;;;;;;;5.80;3.55;;;;;;;;;;5033722;28;20030;-72
2022/01/01 05:02:42;;;;;;;5.70;3.70;;;;;;;;;;5045045;28;20021;-72
2022/01/01 05:05:08;;;;;;;6.50;3.72;;;;;;;;;;5037655;28;20116;-72
2022/01/01 05:07:34;;;;;;;5.13;3.60;;;;;;;;;;5039290;28;20034;-73
2022/01/01 05:10:00;;;;;;;5.93;3.58;;;;;;;;;;5044911;28;20032;-72
2022/01/01 05:12:26;;;;;;;5.18;3.33;;;;;;;;;;5032402;28;20033;-72
2022/01/01 05:14:52;;;;;;;5.30;3.55;;;;;;;;;;5044688;28;20041;-73
2022/01/01 05:17:18;;;;;;;3.85;3.47;;;;;;;;;;5039086;28;20116;-74
2022/01/01 05:19:44;;;;;;;4.38;3.25;;;;;;;;;;5036942;28;20029;-74
2022/01/01 05:22:11;;;;;;;5.63;3.78;;;;;;;;;;5026321;28;20087;-72
2022/01/01 05:24:36;;;;;;;5.18;3.67;;;;;;;;;;5045907;28;20036;-72
2022/01/01 05:27:03;;;;;;;9.23;4.00;;;;;;;;;;5036810;28;20467;-72
2022/01/01 05:29:29;;;;;;;5.68;3.50;;;;;;;;;;5038349;28;20057;-72
2022/01/01 05:31:55;;;;;;;9.48;3.58;;;;;;;;;;5042474;28;20057;-72
2022/01/01 05:34:21;;;;;;;4.93;3.63;;;;;;;;;;5032886;28;20041;-72
2022/01/01 05:36:47;;;;;;;4.75;3.78;;;;;;;;;;5045714;28;20037;-74
2022/01/01 05:39:13;;;;;;;8.40;3.97;;;;;;;;;;5037017;28;20057;-75
2022/01/01 05:41:39;;;;;;;4.63;2.92;;;;;;;;;;5036613;28;20065;-75
2022/01/01 05:44:05;;;;;;;5.25;3.67;;;;;;;;;;5044882;28;20024;-72
2022/01/01 05:46:32;;;;;;;4.65;3.40;;;;;;;;;;5033369;28;20440;-71
2022/01/01 05:48:58;;;;;;;5.88;3.30;;;;;;;;;;5044401;28;20045;-72
2022/01/01 05:51:24;;;;;;;6.15;3.78;;;;;;;;;;5039575;28;20036;-72
2022/01/01 05:53:50;;;;;;;6.00;3.75;;;;;;;;;;5033705;28;20080;-72
2022/01/01 05:56:16;;;;;;;4.85;3.53;;;;;;;;;;5044521;28;20032;-74
2022/01/01 05:58:42;;;;;;;5.72;3.35;;;;;;;;;;5034043;28;20025;-73
2022/01/01 06:01:08;;;;;;;8.80;3.67;;;;;;;;;;5042380;28;20479;-74
2022/01/01 06:03:34;;;;;;;4.90;3.80;;;;;;;;;;5040141;28;20454;-74
2022/01/01 06:06:00;;;;;;;5.55;3.50;;;;;;;;;;5035465;28;20029;-75
2022/01/01 06:08:28;;;;;;;5.95;3.20;;;;;;;;;;5047046;28;20036;-72
2022/01/01 06:10:54;;;;;;;7.55;3.60;;;;;;;;;;5038828;28;20016;-74
2022/01/01 06:13:20;;;;;;;6.80;3.97;;;;;;;;;;5038205;28;20402;-72
2022/01/01 06:15:46;;;;;;;5.95;3.70;;;;;;;;;;5038751;28;20976;-73
2022/01/01 06:18:12;;;;;;;5.03;3.55;;;;;;;;;;5033721;28;20064;-73
2022/01/01 06:20:38;;;;;;;5.45;3.75;;;;;;;;;;5048395;28;20528;-73
2022/01/01 06:23:05;;;;;;;7.57;4.68;;;;;;;;;;5046124;28;20037;-73
2022/01/01 06:25:31;;;;;;;8.80;4.13;;;;;;;;;;5044017;28;20552;-73
2022/01/01 06:27:57;;;;;;;5.30;3.95;;;;;;;;;;5038619;28;20056;-73
2022/01/01 06:30:23;;;;;;;5.63;3.83;;;;;;;;;;5019711;28;20014;-73
2022/01/01 06:32:51;;;;;;;8.20;4.20;;;;;;;;;;5047746;28;20026;-74
2022/01/01 06:35:17;;;;;;;6.53;4.22;;;;;;;;;;5040515;28;20103;-74
2022/01/01 06:37:43;;;;;;;5.95;4.03;;;;;;;;;;5039437;28;20033;-74
2022/01/01 06:40:09;;;;;;;6.05;3.63;;;;;;;;;;5049450;28;20319;-73
2022/01/01 06:42:35;;;;;;;6.63;4.20;;;;;;;;;;5055926;28;20328;-76
2022/01/01 06:45:01;;;;;;;5.95;3.88;;;;;;;;;;5065395;28;20036;-74
2022/01/01 06:47:27;;;;;;;5.78;3.42;;;;;;;;;;5044403;28;20024;-74
2022/01/01 06:49:53;;;;;;;7.97;4.03;;;;;;;;;;5059008;28;20024;-73
2022/01/01 06:52:19;;;;;;;7.13;3.80;;;;;;;;;;5069364;28;20021;-74
2022/01/01 06:54:45;;;;;;;6.07;4.03;;;;;;;;;;5039126;28;20393;-74
2022/01/01 06:57:11;;;;;;;5.03;3.70;;;;;;;;;;5064858;28;20028;-73
2022/01/01 06:59:37;;;;;;;5.03;3.17;;;;;;;;;;5064186;28;20386;-74
2022/01/01 07:02:03;;;;;;;4.43;2.85;;;;;;;;;;5057533;28;20056;-73
2022/01/01 07:04:29;;;;;;;6.95;3.33;;;;;;;;;;5068730;28;20028;-73
2022/01/01 07:06:54;;;;;;;4.97;2.97;;;;;;;;;;5040107;28;20028;-73
2022/01/01 07:09:20;;;;;;;4.45;2.95;;;;;;;;;;5063339;28;20017;-74
2022/01/01 07:11:46;;;;;;;4.53;2.90;;;;;;;;;;5064994;28;20029;-74
2022/01/01 07:14:12;;;;;;;4.30;2.47;;;;;;;;;;5037548;28;20035;-76
2022/01/01 07:16:38;;;;;;;3.88;2.78;;;;;;;;;;5069129;28;20040;-75
2022/01/01 07:19:04;;;;;;;4.85;3.15;;;;;;;;;;5041241;28;20020;-74
2022/01/01 07:21:31;;;;;;;3.75;2.50;;;;;;;;;;5066107;28;20032;-76
2022/01/01 07:23:57;;;;;;;5.72;2.50;;;;;;;;;;5057010;28;20036;-76
2022/01/01 07:26:22;;;;;;;5.60;2.90;;;;;;;;;;5068227;28;20078;-76
2022/01/01 07:28:48;;;;;;;5.60;2.70;;;;;;;;;;5056457;28;20021;-73
2022/01/01 07:31:14;;;;;;;4.85;2.55;;;;;;;;;;5053837;28;20021;-72
2022/01/01 07:33:40;;;;;;;4.05;2.35;;;;;;;;;;5046489;28;20088;-74
2022/01/01 07:36:06;;;;;;;3.50;2.38;;;;;;;;;;5062750;28;20111;-73
2022/01/01 07:38:32;;;;;;;7.32;2.80;;;;;;;;;;5055059;28;20111;-73
2022/01/01 07:40:58;;;;;;;5.60;2.90;;;;;;;;;;5065190;28;20063;-73
2022/01/01 07:43:26;;;;;;;4.25;2.50;;;;;;;;;;5060743;28;20032;-74
2022/01/01 07:45:52;;;;;;;4.03;2.17;;;;;;;;;;5057957;28;20044;-75
2022/01/01 07:48:18;;;;;;;4.93;2.42;;;;;;;;;;5068287;28;20437;-74
2022/01/01 07:50:44;;;;;;;4.38;2.78;;;;;;;;;;5055353;28;20013;-75
2022/01/01 07:53:10;;;;;;;2.92;2.60;;;;;;;;;;5063021;28;20556;-72
2022/01/01 07:55:36;;;;;;;3.80;2.22;;;;;;;;;;5062800;28;20300;-76
2022/01/01 07:58:02;;;;;;;4.97;2.67;;;;;;;;;;5056641;28;20075;-75
2022/01/01 08:00:28;;;;;;;4.07;2.65;;;;;;;;;;5067733;28;20505;-73
2022/01/01 08:02:54;;;;;;;4.63;2.20;;;;;;;;;;5056249;28;20039;-74
2022/01/01 08:05:21;;;;;;;5.68;2.28;;;;;;;;;;5061725;28;20017;-74
2022/01/01 08:07:47;;;;;;;4.28;2.42;;;;;;;;;;5064180;28;20023;-72
2022/01/01 08:10:13;;;;;;;2.97;2.35;;;;;;;;;;5054620;28;20029;-72
2022/01/01 08:12:41;;;;;;;2.47;2.00;;;;;;;;;;5020426;28;20024;-70
2022/01/01 08:15:07;;;;;;;4.13;2.45;;;;;;;;;;5063340;28;20115;-71
2022/01/01 08:17:33;;;;;;;3.13;2.83;;;;;;;;;;5061620;28;20020;-70
2022/01/01 08:19:59;;;;;;;2.50;2.10;;;;;;;;;;5053151;28;20724;-72
2022/01/01 08:22:25;;;;;;;5.78;2.70;;;;;;;;;;5047403;28;20020;-73
2022/01/01 08:24:51;;;;;;;9.35;2.47;;;;;;;;;;5055401;28;20020;-73
2022/01/01 08:27:18;;;;;;;2.80;2.08;;;;;;;;;;5044054;28;20021;-72
2022/01/01 08:29:44;;;;;;;4.28;2.40;;;;;;;;;;5062830;28;20020;-72
2022/01/01 08:32:10;;;;;;;4.82;1.95;;;;;;;;;;5036478;28;20474;-72
2022/01/01 08:34:36;;;;;;;3.92;2.50;;;;;;;;;;5066134;28;20029;-72
2022/01/01 08:37:02;;;;;;;5.32;2.25;;;;;;;;;;5057268;28;20024;-72
2022/01/01 08:39:28;;;;;;;2.78;1.83;;;;;;;;;;5060270;28;20063;-73
2022/01/01 08:41:54;;;;;;;3.25;2.10;;;;;;;;;;5064209;28;20060;-68
2022/01/01 08:44:20;;;;;;;4.18;1.98;;;;;;;;;;5053530;28;20029;-72
2022/01/01 08:46:46;;;;;;;7.07;2.75;;;;;;;;;;5065863;28;20020;-72
2022/01/01 08:49:12;;;;;;;4.05;2.45;;;;;;;;;;5058278;28;20433;-72
2022/01/01 08:51:41;;;;;;;4.82;2.60;;;;;;;;;;5058515;28;20049;-72
2022/01/01 08:54:07;;;;;;;3.10;2.25;;;;;;;;;;5040166;28;20025;-72
2022/01/01 08:56:33;;;;;;;3.70;2.15;;;;;;;;;;5066741;28;20028;-72
2022/01/01 08:58:59;;;;;;;2.65;1.83;;;;;;;;;;5048239;28;20104;-76
2022/01/01 09:01:25;;;;;;;2.22;2.00;;;;;;;;;;5028202;28;20117;-69
2022/01/01 09:03:51;;;;;;;4.05;2.47;;;;;;;;;;5062924;28;20067;-70
2022/01/01 09:06:17;;;;;;;3.05;1.70;;;;;;;;;;5036396;28;20439;-74
2022/01/01 09:08:43;;;;;;;3.05;2.13;;;;;;;;;;5066287;28;20019;-74
2022/01/01 09:11:10;;;;;;;3.85;1.83;;;;;;;;;;5039903;28;20044;-73
2022/01/01 09:13:41;;;;;;;2.63;1.98;;;;;;;;;;5040081;28;20043;-73
2022/01/01 09:16:08;;;;;;;4.15;2.50;;;;;;;;;;5065413;28;20025;-73
2022/01/01 09:18:33;;;;;;;5.93;2.15;;;;;;;;;;5053365;28;20073;-74
2022/01/01 09:20:59;;;;;;;4.82;2.63;;;;;;;;;;5064893;28;20024;-74
2022/01/01 09:23:25;;;;;;;6.88;2.42;;;;;;;;;;5059559;28;20036;-71
2022/01/01 09:25:51;;;;;;;5.47;2.70;;;;;;;;;;5063432;28;20028;-74
2022/01/01 09:28:17;;;;;;;5.22;2.50;;;;;;;;;;5053577;28;20024;-73
2022/01/01 09:30:43;;;;;;;4.45;2.13;;;;;;;;;;5056896;28;20021;-75
2022/01/01 09:33:12;;;;;;;4.45;2.40;;;;;;;;;;5062120;28;20017;-74
2022/01/01 09:35:38;;;;;;;3.15;2.05;;;;;;;;;;5044282;28;20036;-73
2022/01/01 09:38:04;;;;;;;5.10;2.28;;;;;;;;;;5037892;28;20025;-75
2022/01/01 09:40:30;;;;;;;4.40;2.42;;;;;;;;;;5066997;28;20033;-71
2022/01/01 09:42:57;;;;;;;6.10;2.40;;;;;;;;;;5037551;28;20028;-73
2022/01/01 09:45:23;;;;;;;5.85;2.67;;;;;;;;;;5061534;28;20068;-74
2022/01/01 09:47:50;;;;;;;4.95;1.60;;;;;;;;;;5065977;28;20217;-73
2022/01/01 09:50:16;;;;;;;4.45;2.13;;;;;;;;;;5056297;28;20036;-74
2022/01/01 09:52:42;;;;;;;4.65;2.20;;;;;;;;;;5069209;28;20508;-73
2022/01/01 09:55:09;;;;;;;4.28;2.47;;;;;;;;;;5060349;28;20525;-74
2022/01/01 09:57:35;;;;;;;6.80;2.50;;;;;;;;;;5043990;28;20437;-74
2022/01/01 10:00:01;;;;;;;4.32;2.15;;;;;;;;;;5062578;28;20637;-74
2022/01/01 10:02:27;;;;;;;3.55;2.00;;;;;;;;;;5055381;28;20021;-73
2022/01/01 10:04:53;;;;;;;8.05;2.80;;;;;;;;;;5067109;28;20128;-73
2022/01/01 10:07:27;;;;;;;6.38;2.85;;;;;;;;;;5062105;28;20107;-73
2022/01/01 10:09:53;;;;;;;5.82;2.28;;;;;;;;;;5059639;28;20051;-73
2022/01/01 10:12:19;;;;;;;6.47;2.35;;;;;;;;;;5069438;28;20016;-72
2022/01/01 10:14:47;;;;;;;3.63;2.08;;;;;;;;;;5038826;28;20024;-71
2022/01/01 10:17:20;;;;;;;5.55;2.60;;;;;;;;;;5064395;28;20028;-73
2022/01/01 10:19:47;;;;;;;6.80;2.00;;;;;;;;;;5041116;28;20086;-73
2022/01/01 10:22:14;;;;;;;5.03;2.05;;;;;;;;;;5049971;28;20332;-73
2022/01/01 10:27:48;;;;;;;5.25;2.35;;;;;;;;;;5062853;28;20044;-72
2022/01/01 10:30:17;;;;;;;3.53;2.20;;;;;;;;;;5069240;28;20505;-74
2022/01/01 10:33:01;;;;;;;3.90;2.08;;;;;;;;;;5056592;28;20069;-72
2022/01/01 10:35:29;;;;;;;3.78;2.05;;;;;;;;;;5062339;28;20109;-72
2022/01/01 10:37:55;;;;;;;8.02;2.83;;;;;;;;;;5066518;28;20482;-71
2022/01/01 10:42:50;;;;;;;7.05;2.80;;;;;;;;;;5048145;22;20052;-71
2022/01/01 10:45:28;;;;;;;3.85;2.05;;;;;;;;;;5025288;28;20034;-74
2022/01/01 10:51:01;;;;;;;5.82;2.88;;;;;;;;;;5015420;28;20561;-75
2022/01/01 10:53:28;;;;;;;4.47;2.65;;;;;;;;;;5022108;28;20033;-75
2022/01/01 10:55:55;;;;;;;6.03;2.65;;;;;;;;;;5025210;28;20033;-71
2022/01/01 10:58:28;;;;;;;3.78;2.20;;;;;;;;;;5017741;28;20053;-72
2022/01/01 11:01:01;;;;;;;6.53;2.83;;;;;;;;;;5018341;28;20056;-74
2022/01/01 11:03:28;;;;;;;10.38;3.05;;;;;;;;;;5017321;28;20514;-73
2022/01/01 11:06:05;;;;;;;6.68;2.97;;;;;;;;;;5024906;28;20029;-73
2022/01/01 11:08:32;;;;;;;5.45;2.80;;;;;;;;;;5016364;28;20030;-75
2022/01/01 11:10:58;;;;;;;5.68;2.55;;;;;;;;;;5026293;28;20021;-74
2022/01/01 11:13:25;;;;;;;4.97;2.88;;;;;;;;;;5034519;28;20041;-74
2022/01/01 11:15:51;;;;;;;4.22;2.53;;;;;;;;;;5017126;28;20026;-75
2022/01/01 11:18:18;;;;;;;5.18;2.70;;;;;;;;;;5035410;28;20026;-74
2022/01/01 11:20:44;;;;;;;5.68;2.40;;;;;;;;;;5030447;28;20029;-73
2022/01/01 11:23:11;;;;;;;6.32;2.80;;;;;;;;;;5021624;28;20068;-74
2022/01/01 11:25:38;;;;;;;4.90;2.38;;;;;;;;;;5034287;28;20060;-75
2022/01/01 11:28:07;;;;;;;6.22;3.03;;;;;;;;;;5001826;28;20453;-75
2022/01/01 11:30:35;;;;;;;5.85;3.10;;;;;;;;;;5031094;28;20017;-74
2022/01/01 11:33:04;;;;;;;8.23;3.05;;;;;;;;;;5001249;28;20026;-74
2022/01/01 11:35:31;;;;;;;5.80;2.60;;;;;;;;;;5003461;28;20026;-74
2022/01/01 11:38:08;;;;;;;8.10;2.50;;;;;;;;;;5025322;28;20087;-74
2022/01/01 11:40:57;;;;;;;4.53;2.63;;;;;;;;;;5015023;28;20037;-74
2022/01/01 11:43:42;;;;;;;6.32;2.63;;;;;;;;;;5021301;28;20112;-73
2022/01/01 11:46:08;;;;;;;8.18;3.35;;;;;;;;;;5028005;28;20018;-74
2022/01/01 11:48:41;;;;;;;6.00;2.70;;;;;;;;;;5016617;28;20707;-74
2022/01/01 11:51:28;;;;;;;6.70;2.75;;;;;;;;;;5026092;28;20555;-74
2022/01/01 11:54:08;;;;;;;6.70;2.90;;;;;;;;;;5007707;28;20060;-75
2022/01/01 11:56:53;;;;;;;8.75;3.28;;;;;;;;;;5044034;28;20175;-74
2022/01/01 11:59:19;;;;;;;7.35;3.13;;;;;;;;;;5036905;28;20026;-73
2022/01/01 12:01:46;;;;;;;7.18;2.85;;;;;;;;;;5019957;28;20057;-74
2022/01/01 12:04:27;;;;;;;9.35;2.90;;;;;;;;;;5024684;28;20026;-73
2022/01/01 12:06:54;;;;;;;7.77;3.40;;;;;;;;;;5004756;28;20030;-74
2022/01/01 12:09:20;;;;;;;5.50;2.83;;;;;;;;;;5020239;28;20041;-73
2022/01/01 12:11:54;;;;;;;6.25;2.80;;;;;;;;;;5021226;28;20101;-73
2022/01/01 12:14:20;;;;;;;8.95;3.05;;;;;;;;;;5007518;28;20037;-74
2022/01/01 12:16:50;;;;;;;8.18;2.92;;;;;;;;;;5029715;28;20049;-75
2022/01/01 12:19:22;;;;;;;10.00;2.70;;;;;;;;;;5023228;28;20041;-74
2022/01/01 12:21:51;;;;;;;7.20;2.90;;;;;;;;;;5029400;28;20029;-74
2022/01/01 12:24:20;;;;;;;9.93;3.65;;;;;;;;;;5043008;28;20025;-74
2022/01/01 12:26:51;;;;;;;9.35;3.63;;;;;;;;;;5025267;28;20024;-75
2022/01/01 12:29:21;;;;;;;9.00;2.60;;;;;;;;;;5029497;28;20121;-73
2022/01/01 12:31:57;;;;;;;11.07;4.20;;;;;;;;;;5028697;28;20026;-74
2022/01/01 12:34:27;;;;;;;8.40;3.17;;;;;;;;;;5017064;28;20030;-72
2022/01/01 12:36:53;;;;;;;5.57;3.08;;;;;;;;;;5026242;28;20021;-74
2022/01/01 12:39:20;;;;;;;7.72;3.13;;;;;;;;;;5020584;28;20025;-76
2022/01/01 12:41:46;;;;;;;32.15;14.85;;;;;;;;;;5031574;28;20045;-74
2022/01/01 12:44:12;;;;;;;10.30;5.63;;;;;;;;;;5014450;28;20097;-75
2022/01/01 12:46:58;;;;;;;39.00;20.70;;;;;;;;;;5009675;28;20025;-73
2022/01/01 12:49:24;;;;;;;22.00;12.25;;;;;;;;;;5017099;28;20148;-74
2022/01/01 12:51:56;;;;;;;73.75;35.85;;;;;;;;;;5023992;28;20021;-75
2022/01/01 12:54:22;;;;;;;15.75;6.18;;;;;;;;;;5028798;28;20025;-75
2022/01/01 12:56:48;;;;;;;44.38;19.08;;;;;;;;;;5015541;28;20471;-75
2022/01/01 12:59:15;;;;;;;66.13;26.60;;;;;;;;;;5022203;28;20037;-77
2022/01/01 13:01:44;;;;;;;45.63;19.08;;;;;;;;;;5014788;28;20026;-75
2022/01/01 13:04:10;;;;;;;18.00;8.80;;;;;;;;;;5010755;28;20029;-76
2022/01/01 13:06:37;;;;;;;12.60;5.25;;;;;;;;;;5020382;28;20098;-75
2022/01/01 13:09:07;;;;;;;28.98;11.75;;;;;;;;;;5013006;28;20017;-76
2022/01/01 13:11:34;;;;;;;14.20;6.47;;;;;;;;;;5019592;28;20329;-75
2022/01/01 13:14:01;;;;;;;15.35;6.20;;;;;;;;;;5023619;28;20029;-75
2022/01/01 13:16:27;;;;;;;36.63;14.45;;;;;;;;;;5013491;28;20033;-74
2022/01/01 13:18:53;;;;;;;13.05;5.28;;;;;;;;;;5007572;28;20033;-75
2022/01/01 13:21:20;;;;;;;26.58;11.93;;;;;;;;;;5007579;28;20025;-76
2022/01/01 13:23:47;;;;;;;28.05;13.30;;;;;;;;;;5026689;28;20033;-77
2022/01/01 13:26:13;;;;;;;23.23;10.95;;;;;;;;;;5034480;28;20022;-75
2022/01/01 13:28:39;;;;;;;17.23;7.07;;;;;;;;;;5001012;28;20024;-74
2022/01/01 13:31:06;;;;;;;17.15;8.02;;;;;;;;;;5029548;28;20034;-75
2022/01/01 13:33:32;;;;;;;25.60;11.55;;;;;;;;;;5011045;28;20037;-74
2022/01/01 13:36:00;;;;;;;12.88;6.03;;;;;;;;;;5029086;28;20032;-75
2022/01/01 13:38:26;;;;;;;34.53;15.80;;;;;;;;;;5033284;28;20026;-75
2022/01/01 13:40:54;;;;;;;14.13;7.28;;;;;;;;;;5024681;28;20025;-73
2022/01/01 13:43:20;;;;;;;23.40;10.48;;;;;;;;;;5007684;28;20232;-75
2022/01/01 13:45:46;;;;;;;15.70;7.30;;;;;;;;;;5024803;28;20104;-74
2022/01/01 13:48:13;;;;;;;23.25;11.55;;;;;;;;;;5030684;28;20033;-74
2022/01/01 13:50:44;;;;;;;13.93;5.88;;;;;;;;;;5029734;28;20025;-75
2022/01/01 13:53:11;;;;;;;18.65;8.70;;;;;;;;;;5032033;28;20025;-75
2022/01/01 13:55:39;;;;;;;12.20;6.80;;;;;;;;;;5004002;28;20186;-74
2022/01/01 13:58:05;;;;;;;23.98;11.80;;;;;;;;;;5029579;28;20060;-74
2022/01/01 14:00:35;;;;;;;22.65;9.73;;;;;;;;;;5017711;28;20026;-74
2022/01/01 14:03:03;;;;;;;13.75;5.47;;;;;;;;;;5027132;28;20084;-73
2022/01/01 14:05:29;;;;;;;17.40;7.35;;;;;;;;;;5024645;28;20053;-73
2022/01/01 14:08:15;;;;;;;39.42;18.48;;;;;;;;;;5019960;28;20072;-74
2022/01/01 14:10:41;;;;;;;85.78;34.50;;;;;;;;;;5017819;28;20099;-74
2022/01/01 14:13:07;;;;;;;116.22;49.20;;;;;;;;;;5033596;28;20060;-73
2022/01/01 14:15:37;;;;;;;56.55;22.60;;;;;;;;;;5005051;28;20460;-74
2022/01/01 14:18:06;;;;;;;22.55;9.80;;;;;;;;;;5028525;28;20018;-73
2022/01/01 14:20:34;;;;;;;19.40;10.13;;;;;;;;;;5019548;28;20024;-75
2022/01/01 14:23:03;;;;;;;26.45;13.27;;;;;;;;;;5015748;28;20021;-76
2022/01/01 14:25:31;;;;;;;56.28;23.48;;;;;;;;;;5016232;28;20075;-72
2022/01/01 14:28:09;;;;;;;12.80;5.47;;;;;;;;;;5019514;28;20022;-72
2022/01/01 14:30:36;;;;;;;28.63;11.10;;;;;;;;;;5029916;28;20028;-73
2022/01/01 14:33:06;;;;;;;21.80;9.15;;;;;;;;;;5019593;28;20021;-76
2022/01/01 14:35:32;;;;;;;34.00;14.50;;;;;;;;;;5023245;28;20105;-74
2022/01/01 14:37:58;;;;;;;33.30;14.85;;;;;;;;;;5028511;28;20037;-73
2022/01/01 14:40:25;;;;;;;22.48;10.90;;;;;;;;;;5016694;28;20403;-75
2022/01/01 14:42:51;;;;;;;29.38;13.27;;;;;;;;;;5010790;28;20142;-73
2022/01/01 14:45:17;;;;;;;13.75;6.30;;;;;;;;;;5022053;28;20562;-74
2022/01/01 14:47:49;;;;;;;10.45;5.10;;;;;;;;;;5003494;28;20077;-75
2022/01/01 14:50:15;;;;;;;32.40;14.63;;;;;;;;;;5029837;28;20048;-73
2022/01/01 14:52:58;;;;;;;21.33;8.65;;;;;;;;;;4998878;28;20022;-73